createdAt,value
2018-09-26T00:05:35.767Z,8.70
2018-09-26T00:08:04.027Z,8.80
2018-09-26T00:10:32.267Z,8.70
2018-09-26T00:13:01.104Z,8.70
2018-09-26T00:15:29.350Z,8.70
2018-09-26T00:17:57.596Z,8.70
2018-09-26T00:20:25.912Z,8.70
2018-09-26T00:22:54.156Z,8.70
2018-09-26T00:25:22.597Z,8.70
2018-09-26T00:27:50.863Z,8.70
2018-09-26T00:30:19.116Z,8.70
2018-09-26T00:32:47.377Z,8.60
2018-09-26T00:35:15.666Z,8.60
2018-09-26T00:37:43.912Z,8.60
2018-09-26T00:40:12.168Z,8.60
2018-09-26T00:42:41.008Z,8.60
2018-09-26T00:45:09.256Z,8.60
2018-09-26T00:47:37.534Z,8.50
2018-09-26T00:50:05.899Z,8.40
2018-09-26T00:52:34.138Z,8.30
2018-09-26T00:55:02.385Z,8.30
2018-09-26T00:57:31.416Z,8.40
2018-09-26T00:59:59.660Z,8.30
2018-09-26T01:02:27.952Z,8.30
2018-09-26T01:04:56.210Z,8.20
2018-09-26T01:07:24.598Z,8.30
2018-09-26T01:09:52.839Z,8.30
2018-09-26T01:12:21.688Z,8.30
2018-09-26T01:14:49.948Z,8.20
2018-09-26T01:17:18.215Z,8.20
2018-09-26T01:19:46.500Z,8.20
2018-09-26T01:22:14.776Z,8.20
2018-09-26T01:24:43.030Z,8.20
2018-09-26T01:27:11.428Z,8.20
2018-09-26T01:29:39.748Z,8.10
2018-09-26T01:32:08.090Z,8.20
2018-09-26T01:34:36.790Z,8.20
2018-09-26T01:37:05.704Z,8.20
2018-09-26T01:39:33.957Z,8.10
2018-09-26T01:42:02.662Z,8.10
2018-09-26T01:44:30.925Z,8.10
2018-09-26T01:46:59.180Z,8.00
2018-09-26T01:49:27.576Z,8.00
2018-09-26T01:51:56.344Z,8.00
2018-09-26T01:54:24.605Z,7.90
2018-09-26T01:56:53.428Z,7.90
2018-09-26T01:59:21.692Z,7.90
2018-09-26T02:01:49.936Z,7.90
2018-09-26T02:04:18.200Z,7.90
2018-09-26T02:06:46.463Z,7.90
2018-09-26T02:09:14.700Z,7.90
2018-09-26T02:11:43.008Z,7.90
2018-09-26T02:14:11.256Z,7.90
2018-09-26T02:16:39.936Z,7.80
2018-09-26T02:19:08.216Z,7.80
2018-09-26T02:21:36.517Z,7.80
2018-09-26T02:24:04.754Z,7.70
2018-09-26T02:26:33.404Z,7.70
2018-09-26T02:29:02.240Z,7.80
2018-09-26T02:31:30.488Z,7.80
2018-09-26T02:33:59.324Z,7.70
2018-09-26T02:36:27.567Z,7.70
2018-09-26T02:38:55.822Z,7.70
2018-09-26T02:41:24.616Z,7.80
2018-09-26T02:43:52.883Z,7.80
2018-09-26T02:46:21.141Z,7.80
2018-09-26T02:48:55.100Z,7.80
2018-09-26T02:51:23.344Z,7.80
2018-09-26T02:53:51.590Z,7.90
2018-09-26T02:56:20.383Z,7.90
2018-09-26T02:58:48.632Z,7.90
2018-09-26T03:01:16.881Z,7.90
2018-09-26T03:03:45.514Z,7.90
2018-09-26T03:06:13.768Z,7.90
2018-09-26T03:08:42.034Z,7.80
2018-09-26T03:11:10.643Z,7.90
2018-09-26T03:13:38.928Z,7.90
2018-09-26T03:16:07.187Z,7.90
2018-09-26T03:18:35.460Z,7.90
2018-09-26T03:21:03.716Z,7.90
2018-09-26T03:23:31.968Z,7.90
2018-09-26T03:26:00.621Z,7.90
2018-09-26T03:28:28.868Z,7.90
2018-09-26T03:30:57.343Z,7.90
2018-09-26T03:33:26.061Z,7.90
2018-09-26T03:35:54.299Z,7.80
2018-09-26T03:38:22.572Z,7.80
2018-09-26T03:40:50.856Z,7.90
2018-09-26T03:43:19.116Z,7.90
2018-09-26T03:45:47.376Z,7.80
2018-09-26T03:48:16.409Z,7.80
2018-09-26T03:50:44.684Z,7.80
2018-09-26T03:53:12.935Z,7.80
2018-09-26T03:55:41.784Z,7.80
2018-09-26T03:58:10.020Z,7.80
2018-09-26T04:00:38.285Z,7.80
2018-09-26T04:03:07.152Z,7.80
2018-09-26T04:05:35.395Z,7.80
2018-09-26T04:08:03.640Z,7.80
2018-09-26T04:10:31.911Z,7.80
2018-09-26T04:13:00.220Z,7.80
2018-09-26T04:15:28.438Z,7.80
2018-09-26T04:17:56.718Z,7.80
2018-09-26T04:20:24.987Z,7.80
2018-09-26T04:22:53.231Z,7.80
2018-09-26T04:25:21.520Z,7.80
2018-09-26T04:27:49.907Z,7.80
2018-09-26T04:30:18.228Z,7.80
2018-09-26T04:32:46.773Z,7.70
2018-09-26T04:35:14.953Z,7.70
2018-09-26T04:37:43.200Z,7.80
2018-09-26T04:40:12.003Z,7.70
2018-09-26T04:42:40.260Z,7.80
2018-09-26T04:45:08.566Z,7.80
2018-09-26T04:47:37.153Z,7.80
2018-09-26T04:50:05.608Z,7.80
2018-09-26T04:52:33.876Z,7.80
2018-09-26T04:55:02.199Z,7.80
2018-09-26T04:57:30.468Z,7.80
2018-09-26T04:59:58.760Z,7.80
2018-09-26T05:02:27.679Z,7.80
2018-09-26T05:04:55.944Z,7.80
2018-09-26T05:07:24.198Z,7.80
2018-09-26T05:09:52.863Z,7.80
2018-09-26T05:12:21.120Z,7.90
2018-09-26T05:14:49.443Z,7.90
2018-09-26T05:17:18.311Z,7.90
2018-09-26T05:19:46.567Z,7.80
2018-09-26T05:22:14.836Z,7.80
2018-09-26T05:24:43.142Z,7.80
2018-09-26T05:27:11.387Z,7.90
2018-09-26T05:29:39.695Z,7.80
2018-09-26T05:32:08.486Z,7.80
2018-09-26T05:34:37.103Z,7.90
2018-09-26T05:37:05.344Z,7.80
2018-09-26T05:39:33.820Z,7.80
2018-09-26T05:42:02.071Z,7.80
2018-09-26T05:44:30.325Z,7.80
2018-09-26T05:46:58.908Z,7.80
2018-09-26T05:49:27.156Z,7.80
2018-09-26T05:51:55.396Z,7.80
2018-09-26T05:54:24.292Z,7.90
2018-09-26T05:56:52.556Z,7.90
2018-09-26T05:59:20.809Z,8.00
2018-09-26T06:01:49.556Z,8.00
2018-09-26T06:04:17.807Z,8.00
2018-09-26T06:06:46.067Z,8.00
2018-09-26T06:09:14.941Z,8.10
2018-09-26T06:11:43.716Z,8.10
2018-09-26T06:14:12.745Z,8.20
2018-09-26T06:16:41.563Z,8.20
2018-09-26T06:19:10.401Z,8.30
2018-09-26T06:21:38.676Z,8.30
2018-09-26T06:24:08.004Z,8.30
2018-09-26T06:26:36.256Z,8.40
2018-09-26T06:29:05.012Z,8.40
2018-09-26T06:31:34.015Z,8.50
2018-09-26T06:34:02.271Z,8.50
2018-09-26T06:36:30.625Z,8.60
2018-09-26T06:38:59.303Z,8.60
2018-09-26T06:41:27.584Z,8.60
2018-09-26T06:43:55.975Z,8.70
2018-09-26T06:46:24.379Z,8.70
2018-09-26T06:48:52.636Z,8.70
2018-09-26T06:51:20.888Z,8.90
2018-09-26T06:53:49.686Z,9.00
2018-09-26T06:56:17.928Z,9.00
2018-09-26T06:58:46.200Z,9.00
2018-09-26T07:01:15.003Z,9.10
2018-09-26T07:03:43.728Z,9.20
2018-09-26T07:06:12.021Z,9.30
2018-09-26T07:08:40.916Z,9.40
2018-09-26T07:11:09.170Z,9.40
2018-09-26T07:13:37.432Z,9.40
2018-09-26T07:16:05.958Z,9.40
2018-09-26T07:18:34.356Z,9.50
2018-09-26T07:21:02.684Z,9.50
2018-09-26T07:23:30.981Z,9.70
2018-09-26T07:25:59.223Z,9.70
2018-09-26T07:28:27.491Z,9.80
2018-09-26T07:30:55.928Z,9.80
2018-09-26T07:33:24.372Z,9.80
2018-09-26T07:35:52.648Z,9.80
2018-09-26T07:38:21.134Z,9.80
2018-09-26T07:40:49.764Z,9.80
2018-09-26T07:43:18.089Z,9.80
2018-09-26T07:45:46.556Z,9.90
2018-09-26T07:48:14.800Z,9.90
2018-09-26T07:50:43.032Z,9.90
2018-09-26T07:53:11.438Z,10.10
2018-09-26T07:55:39.635Z,10.40
2018-09-26T07:58:07.880Z,10.50
2018-09-26T08:00:36.158Z,10.60
2018-09-26T08:03:04.440Z,10.90
2018-09-26T08:05:32.688Z,11.20
2018-09-26T08:08:00.968Z,11.40
2018-09-26T08:10:29.213Z,11.70
2018-09-26T08:12:57.488Z,11.80
2018-09-26T08:15:25.832Z,12.00
2018-09-26T08:17:54.134Z,12.20
2018-09-26T08:20:22.403Z,12.30
2018-09-26T08:22:51.305Z,12.40
2018-09-26T08:25:19.556Z,12.50
2018-09-26T08:27:47.868Z,12.60
2018-09-26T08:30:16.413Z,12.80
2018-09-26T08:32:44.669Z,13.00
2018-09-26T08:35:12.934Z,13.00
2018-09-26T08:37:41.281Z,13.10
2018-09-26T08:40:09.611Z,13.30
2018-09-26T08:42:37.889Z,13.40
2018-09-26T08:45:06.521Z,13.50
2018-09-26T08:47:34.796Z,13.60
2018-09-26T08:50:03.203Z,13.80
2018-09-26T08:52:31.716Z,13.70
2018-09-26T08:54:59.970Z,13.80
2018-09-26T08:57:28.258Z,13.90
2018-09-26T08:59:58.535Z,14.10
2018-09-26T09:02:26.864Z,14.00
2018-09-26T09:04:55.149Z,14.20
2018-09-26T09:07:24.029Z,14.20
2018-09-26T09:09:52.263Z,14.30
2018-09-26T09:12:20.527Z,14.30
2018-09-26T09:14:49.255Z,14.50
2018-09-26T09:17:17.436Z,14.70
2018-09-26T09:19:45.818Z,14.80
2018-09-26T09:22:14.088Z,15.00
2018-09-26T09:24:42.336Z,15.00
2018-09-26T09:27:10.630Z,15.00
2018-09-26T09:29:38.943Z,15.10
2018-09-26T09:32:07.364Z,15.10
2018-09-26T09:34:35.569Z,15.20
2018-09-26T09:37:03.940Z,15.40
2018-09-26T09:39:32.240Z,15.40
2018-09-26T09:42:00.601Z,15.50
2018-09-26T09:44:28.906Z,15.50
2018-09-26T09:46:57.156Z,15.70
2018-09-26T09:49:25.532Z,15.90
2018-09-26T09:51:54.136Z,15.90
2018-09-26T09:54:22.385Z,15.90
2018-09-26T09:56:50.628Z,15.90
2018-09-26T09:59:19.184Z,16.00
2018-09-26T10:01:47.431Z,16.30
2018-09-26T10:04:15.704Z,16.70
2018-09-26T10:06:44.427Z,16.90
2018-09-26T10:09:12.672Z,16.70
2018-09-26T10:11:40.921Z,16.60
2018-09-26T10:14:09.280Z,16.50
2018-09-26T10:16:37.504Z,16.60
2018-09-26T10:19:05.996Z,16.80
2018-09-26T10:21:34.337Z,17.20
2018-09-26T10:24:02.632Z,17.30
2018-09-26T10:26:30.894Z,16.90
2018-09-26T10:28:59.635Z,17.00
2018-09-26T10:31:27.899Z,17.10
2018-09-26T10:33:56.152Z,17.40
2018-09-26T10:36:24.488Z,17.30
2018-09-26T10:38:52.760Z,17.20
2018-09-26T10:41:21.020Z,17.40
2018-09-26T10:43:49.369Z,17.50
2018-09-26T10:46:17.623Z,17.50
2018-09-26T10:48:45.879Z,17.50
2018-09-26T10:51:14.140Z,17.70
2018-09-26T10:53:42.384Z,17.90
2018-09-26T10:56:10.699Z,18.20
2018-09-26T10:58:39.192Z,18.00
2018-09-26T11:01:07.528Z,17.40
2018-09-26T11:03:35.791Z,17.70
2018-09-26T11:06:04.814Z,17.70
2018-09-26T11:08:33.064Z,17.50
2018-09-26T11:11:01.356Z,17.70
2018-09-26T11:13:30.757Z,17.90
2018-09-26T11:15:59.037Z,18.20
2018-09-26T11:18:27.296Z,18.00
2018-09-26T11:20:55.888Z,18.30
2018-09-26T11:23:24.252Z,18.50
2018-09-26T11:25:52.508Z,18.50
2018-09-26T11:28:21.357Z,18.20
2018-09-26T11:30:49.619Z,18.30
2018-09-26T11:33:17.930Z,18.20
2018-09-26T11:35:46.903Z,18.80
2018-09-26T11:38:15.202Z,18.40
2018-09-26T11:40:43.457Z,18.10
2018-09-26T11:43:11.832Z,18.30
2018-09-26T11:45:40.210Z,18.50
2018-09-26T11:48:08.485Z,18.70
2018-09-26T11:50:37.163Z,18.50
2018-09-26T11:53:05.441Z,18.70
2018-09-26T11:55:33.709Z,18.50
2018-09-26T11:58:02.087Z,18.70
2018-09-26T12:00:30.360Z,18.70
2018-09-26T12:02:58.628Z,18.70
2018-09-26T12:05:27.352Z,19.40
2018-09-26T12:07:55.632Z,19.30
2018-09-26T12:10:23.957Z,19.30
2018-09-26T12:12:52.795Z,19.70
2018-09-26T12:15:21.056Z,19.90
2018-09-26T12:17:49.308Z,19.20
2018-09-26T12:20:17.751Z,18.80
2018-09-26T12:22:46.016Z,19.10
2018-09-26T12:25:14.288Z,19.50
2018-09-26T12:27:42.963Z,19.30
2018-09-26T12:30:11.229Z,18.90
2018-09-26T12:32:39.469Z,19.20
2018-09-26T12:35:08.822Z,19.10
2018-09-26T12:37:37.122Z,19.20
2018-09-26T12:40:05.676Z,19.40
2018-09-26T12:42:33.988Z,19.30
2018-09-26T12:45:02.281Z,19.60
2018-09-26T12:47:30.728Z,19.60
2018-09-26T12:49:59.406Z,19.70
2018-09-26T12:52:27.665Z,19.80
2018-09-26T12:54:55.942Z,19.70
2018-09-26T12:57:24.276Z,19.90
2018-09-26T12:59:52.549Z,19.90
2018-09-26T13:02:20.982Z,19.70
2018-09-26T13:04:49.544Z,19.80
2018-09-26T13:07:17.828Z,19.60
2018-09-26T13:09:46.079Z,19.90
2018-09-26T13:12:15.714Z,19.90
2018-09-26T13:14:44.070Z,20.10
2018-09-26T13:17:13.373Z,20.30
2018-09-26T13:19:42.105Z,20.40
2018-09-26T13:22:10.423Z,20.70
2018-09-26T13:24:39.868Z,20.50
2018-09-26T13:27:09.525Z,20.20
2018-09-26T13:29:39.266Z,20.60
2018-09-26T13:32:08.515Z,20.70
2018-09-26T13:34:36.833Z,20.20
2018-09-26T13:37:05.112Z,19.90
2018-09-26T13:39:34.483Z,20.30
2018-09-26T13:42:03.930Z,20.40
2018-09-26T13:44:32.364Z,19.80
2018-09-26T13:47:00.822Z,20.10
2018-09-26T13:49:29.300Z,20.40
2018-09-26T13:51:58.497Z,20.30
2018-09-26T13:54:26.937Z,20.10
2018-09-26T13:56:55.781Z,19.90
2018-09-26T13:59:24.228Z,20.20
2018-09-26T14:01:52.509Z,20.10
2018-09-26T14:04:20.880Z,19.90
2018-09-26T14:06:49.068Z,20.00
2018-09-26T14:09:17.335Z,20.00
2018-09-26T14:11:46.055Z,20.20
2018-09-26T14:14:14.492Z,19.80
2018-09-26T14:16:42.723Z,19.90
2018-09-26T14:19:10.995Z,19.50
2018-09-26T14:21:39.713Z,19.40
2018-09-26T14:26:41.323Z,19.60
2018-09-26T14:29:09.638Z,19.40
2018-09-26T14:31:37.885Z,19.40
2018-09-26T14:34:06.294Z,19.30
2018-09-26T14:36:34.570Z,19.20
2018-09-26T14:39:02.954Z,19.20
2018-09-26T14:41:31.837Z,19.10
2018-09-26T14:44:00.044Z,19.10
2018-09-26T14:46:28.297Z,19.10
2018-09-26T14:48:56.632Z,19.00
2018-09-26T14:51:26.044Z,19.00
2018-09-26T14:53:54.468Z,19.00
2018-09-26T14:56:23.211Z,19.00
2018-09-26T14:58:51.661Z,19.00
2018-09-26T15:01:19.936Z,18.80
2018-09-26T15:03:48.624Z,18.90
2018-09-26T15:06:16.892Z,18.90
2018-09-26T15:08:45.215Z,18.80
2018-09-26T15:11:13.609Z,18.80
2018-09-26T15:13:42.164Z,18.70
2018-09-26T15:16:10.982Z,18.70
2018-09-26T15:18:39.817Z,18.60
2018-09-26T15:21:08.096Z,18.50
2018-09-26T15:23:36.357Z,18.50
2018-09-26T15:26:05.500Z,18.50
2018-09-26T15:28:33.784Z,18.40
2018-09-26T15:31:02.047Z,18.40
2018-09-26T15:33:30.356Z,18.40
2018-09-26T15:35:58.634Z,18.30
2018-09-26T15:38:27.022Z,18.20
2018-09-26T15:40:55.540Z,18.20
2018-09-26T15:43:23.891Z,18.20
2018-09-26T15:45:52.172Z,18.10
2018-09-26T15:48:20.766Z,18.10
2018-09-26T15:50:49.020Z,18.10
2018-09-26T15:53:17.343Z,18.00
2018-09-26T15:55:45.637Z,18.00
2018-09-26T15:58:13.960Z,17.90
2018-09-26T16:00:42.164Z,18.00
2018-09-26T16:03:10.540Z,18.00
2018-09-26T16:05:38.820Z,17.90
2018-09-26T16:08:07.114Z,17.80
2018-09-26T16:10:35.752Z,17.70
2018-09-26T16:13:04.052Z,17.70
2018-09-26T16:15:32.308Z,17.70
2018-09-26T16:18:01.380Z,17.70
2018-09-26T16:20:29.640Z,17.70
2018-09-26T16:22:57.916Z,17.60
2018-09-26T16:25:26.549Z,17.60
2018-09-26T16:27:54.861Z,17.60
2018-09-26T16:30:23.236Z,17.50
2018-09-26T16:32:51.568Z,17.50
2018-09-26T16:35:19.919Z,17.40
2018-09-26T16:37:48.168Z,17.40
2018-09-26T16:40:16.519Z,17.40
2018-09-26T16:42:44.738Z,17.30
2018-09-26T16:45:13.058Z,17.20
2018-09-26T16:47:41.727Z,17.10
2018-09-26T16:50:09.992Z,17.10
2018-09-26T16:52:38.258Z,17.00
2018-09-26T16:55:07.992Z,17.00
2018-09-26T16:57:36.245Z,17.00
2018-09-26T17:00:04.539Z,17.00
2018-09-26T17:02:33.263Z,16.90
2018-09-26T17:05:01.546Z,16.90
2018-09-26T17:07:29.792Z,16.80
2018-09-26T17:09:58.365Z,16.70
2018-09-26T17:12:26.626Z,16.60
2018-09-26T17:14:54.945Z,16.60
2018-09-26T17:17:23.618Z,16.50
2018-09-26T17:19:51.858Z,16.50
2018-09-26T17:22:20.135Z,16.40
2018-09-26T17:24:48.857Z,16.40
2018-09-26T17:27:17.115Z,16.30
2018-09-26T17:29:45.364Z,16.20
2018-09-26T17:32:14.207Z,16.20
2018-09-26T17:34:42.567Z,16.10
2018-09-26T17:37:10.757Z,16.10
2018-09-26T17:39:39.075Z,15.90
2018-09-26T17:42:07.383Z,15.80
2018-09-26T17:44:35.612Z,15.60
2018-09-26T17:47:03.944Z,15.60
2018-09-26T17:49:32.228Z,15.60
2018-09-26T17:52:00.487Z,15.50
2018-09-26T17:54:29.103Z,15.40
2018-09-26T17:56:57.456Z,15.40
2018-09-26T17:59:25.804Z,15.30
2018-09-26T18:01:56.933Z,15.30
2018-09-26T18:04:25.249Z,15.10
2018-09-26T18:06:53.714Z,15.10
2018-09-26T18:09:22.440Z,14.90
2018-09-26T18:11:50.707Z,15.00
2018-09-26T18:14:19.032Z,14.90
2018-09-26T18:16:47.624Z,14.70
2018-09-26T18:19:15.872Z,14.70
2018-09-26T18:21:44.843Z,14.60
2018-09-26T18:24:13.194Z,14.40
2018-09-26T18:26:41.457Z,14.50
2018-09-26T18:29:09.728Z,14.30
2018-09-26T18:31:38.469Z,14.20
2018-09-26T18:34:06.732Z,14.30
2018-09-26T18:36:34.996Z,14.30
2018-09-26T18:39:03.514Z,14.20
2018-09-26T18:41:31.767Z,14.20
2018-09-26T18:44:00.034Z,14.10
2018-09-26T18:46:28.347Z,14.00
2018-09-26T18:48:56.608Z,14.00
2018-09-26T18:51:24.891Z,14.00
2018-09-26T18:53:53.582Z,14.00
2018-09-26T18:56:21.833Z,14.00
2018-09-26T18:58:50.460Z,14.10
2018-09-26T19:01:18.660Z,14.00
2018-09-26T19:03:46.916Z,14.00
2018-09-26T19:06:15.182Z,14.00
2018-09-26T19:08:44.156Z,14.00
2018-09-26T19:11:12.418Z,14.10
2018-09-26T19:13:40.664Z,14.10
2018-09-26T19:16:09.452Z,14.10
2018-09-26T19:18:37.720Z,14.10
2018-09-26T19:21:06.030Z,14.10
2018-09-26T19:23:34.576Z,14.00
2018-09-26T19:26:02.882Z,14.00
2018-09-26T19:28:31.137Z,13.90
2018-09-26T19:31:00.189Z,13.90
2018-09-26T19:33:28.468Z,13.90
2018-09-26T19:35:57.608Z,14.00
2018-09-26T19:38:26.461Z,14.00
2018-09-26T19:40:54.740Z,13.90
2018-09-26T19:43:23.004Z,14.00
2018-09-26T19:45:51.281Z,14.00
2018-09-26T19:48:19.533Z,13.90
2018-09-26T19:50:47.817Z,13.90
2018-09-26T19:53:16.397Z,13.90
2018-09-26T19:55:44.673Z,13.80
2018-09-26T19:58:12.941Z,13.80
2018-09-26T20:00:41.344Z,13.80
2018-09-26T20:03:09.603Z,13.70
2018-09-26T20:05:37.918Z,13.60
2018-09-26T20:08:06.328Z,13.60
2018-09-26T20:10:34.549Z,13.50
2018-09-26T20:13:02.934Z,13.50
2018-09-26T20:15:31.296Z,13.50
2018-09-26T20:17:59.944Z,13.50
2018-09-26T20:20:28.193Z,13.40
2018-09-26T20:22:56.780Z,13.40
2018-09-26T20:25:25.108Z,13.50
2018-09-26T20:27:53.368Z,13.40
2018-09-26T20:30:21.680Z,13.40
2018-09-26T20:32:49.945Z,13.30
2018-09-26T20:35:18.208Z,13.30
2018-09-26T20:37:48.164Z,13.30
2018-09-26T20:40:16.500Z,13.30
2018-09-26T20:42:44.789Z,13.20
2018-09-26T20:45:13.064Z,13.10
2018-09-26T20:47:41.368Z,13.10
2018-09-26T20:50:09.655Z,13.10
2018-09-26T20:52:38.229Z,13.10
2018-09-26T20:55:06.529Z,13.10
2018-09-26T20:57:34.831Z,13.20
2018-09-26T21:00:03.502Z,13.20
2018-09-26T21:02:32.060Z,13.20
2018-09-26T21:05:00.328Z,13.20
2018-09-26T21:07:28.609Z,13.30
2018-09-26T21:09:56.874Z,13.30
2018-09-26T21:12:25.229Z,13.30
2018-09-26T21:14:54.108Z,13.30
2018-09-26T21:17:22.389Z,13.20
2018-09-26T21:19:50.659Z,13.20
2018-09-26T21:22:19.407Z,13.20
2018-09-26T21:24:47.655Z,13.10
2018-09-26T21:27:15.920Z,13.00
2018-09-26T21:29:44.562Z,12.90
2018-09-26T21:32:12.831Z,12.90
2018-09-26T21:34:41.101Z,12.90
2018-09-26T21:37:09.516Z,12.80
2018-09-26T21:39:37.776Z,12.70
2018-09-26T21:42:06.108Z,12.70
2018-09-26T21:44:34.376Z,12.60
2018-09-26T21:47:03.521Z,12.60
2018-09-26T21:49:31.776Z,12.70
2018-09-26T21:52:00.144Z,12.60
2018-09-26T21:54:28.400Z,12.60
2018-09-26T21:56:56.672Z,12.70
2018-09-26T21:59:25.559Z,12.70
2018-09-26T22:01:53.812Z,12.60
2018-09-26T22:04:22.142Z,12.60
2018-09-26T22:06:50.484Z,12.60
2018-09-26T22:09:18.761Z,12.60
2018-09-26T22:11:47.014Z,12.60
2018-09-26T22:14:15.676Z,12.50
2018-09-26T22:16:43.944Z,12.60
2018-09-26T22:19:12.205Z,12.50
2018-09-26T22:21:40.812Z,12.50
2018-09-26T22:24:09.149Z,12.50
2018-09-26T22:26:37.408Z,12.50
2018-09-26T22:29:05.829Z,12.40
2018-09-26T22:31:34.115Z,12.40
2018-09-26T22:34:02.384Z,12.40
2018-09-26T22:36:31.000Z,12.30
2018-09-26T22:38:59.250Z,12.30
2018-09-26T22:41:27.512Z,12.30
2018-09-26T22:43:55.924Z,12.30
2018-09-26T22:46:24.174Z,12.30
2018-09-26T22:48:52.472Z,12.30
2018-09-26T22:51:20.903Z,12.30
2018-09-26T22:53:49.160Z,12.30
2018-09-26T22:56:17.414Z,12.30
2018-09-26T22:58:45.680Z,12.20
2018-09-26T23:01:13.942Z,12.20
2018-09-26T23:03:42.197Z,12.10
2018-09-26T23:06:10.664Z,12.10
2018-09-26T23:08:38.920Z,12.10
2018-09-26T23:11:07.194Z,12.00
2018-09-26T23:13:36.128Z,12.00
2018-09-26T23:16:04.464Z,12.00
2018-09-26T23:18:32.744Z,12.00
2018-09-26T23:21:01.460Z,12.10
2018-09-26T23:23:30.029Z,12.10
2018-09-26T23:25:58.311Z,12.10
2018-09-26T23:28:27.062Z,12.00
2018-09-26T23:30:55.320Z,12.00
2018-09-26T23:33:23.622Z,12.00
2018-09-26T23:35:52.396Z,12.00
2018-09-26T23:38:20.663Z,12.00
2018-09-26T23:40:48.908Z,12.00
2018-09-26T23:43:17.489Z,12.00
2018-09-26T23:45:45.827Z,12.00
2018-09-26T23:48:14.076Z,11.90
2018-09-26T23:50:42.916Z,11.90
2018-09-26T23:53:11.179Z,11.80
2018-09-26T23:55:39.446Z,11.80
2018-09-26T23:58:08.111Z,11.90
